sensor_id;sensor_type;location;lat;lon;timestamp;pressure;altitude;pressure_sealevel;temperature
19282;BMP180;9774;52.034;5.342;2024-01-15T00:01:07;100113.00;;;8.30
19282;BMP180;9774;52.034;5.342;2024-01-15T00:03:35;100118.00;;;8.20
19282;BMP180;9774;52.034;5.342;2024-01-15T00:06:03;100106.00;;;8.20
19282;BMP180;9774;52.034;5.342;2024-01-15T00:08:30;100111.00;;;8.10
19282;BMP180;9774;52.034;5.342;2024-01-15T00:10:57;100106.00;;;8.10
19282;BMP180;9774;52.034;5.342;2024-01-15T00:13:24;100101.00;;;8.10
19282;BMP180;9774;52.034;5.342;2024-01-15T00:15:51;100105.00;;;8.00
19282;BMP180;9774;52.034;5.342;2024-01-15T00:18:18;100095.00;;;8.00
19282;BMP180;9774;52.034;5.342;2024-01-15T00:20:46;100093.00;;;8.00
19282;BMP180;9774;52.034;5.342;2024-01-15T00:23:13;100089.00;;;7.90
19282;BMP180;9774;52.034;5.342;2024-01-15T00:25:52;100082.00;;;7.80
19282;BMP180;9774;52.034;5.342;2024-01-15T00:28:19;100077.00;;;7.80
19282;BMP180;9774;52.034;5.342;2024-01-15T00:30:46;100073.00;;;7.80
19282;BMP180;9774;52.034;5.342;2024-01-15T00:33:13;100078.00;;;7.80
19282;BMP180;9774;52.034;5.342;2024-01-15T00:35:40;100068.00;;;7.80
19282;BMP180;9774;52.034;5.342;2024-01-15T00:38:09;100073.00;;;7.80
19282;BMP180;9774;52.034;5.342;2024-01-15T00:40:36;100064.00;;;7.70
19282;BMP180;9774;52.034;5.342;2024-01-15T00:43:03;100054.00;;;7.70
19282;BMP180;9774;52.034;5.342;2024-01-15T00:45:32;100055.00;;;7.70
19282;BMP180;9774;52.034;5.342;2024-01-15T00:47:59;100039.00;;;7.70
19282;BMP180;9774;52.034;5.342;2024-01-15T00:50:27;100034.00;;;7.70
19282;BMP180;9774;52.034;5.342;2024-01-15T00:52:54;100033.00;;;7.70
19282;BMP180;9774;52.034;5.342;2024-01-15T00:55:22;100032.00;;;7.60
19282;BMP180;9774;52.034;5.342;2024-01-15T00:57:49;100037.00;;;7.60
19282;BMP180;9774;52.034;5.342;2024-01-15T01:00:17;100036.00;;;7.60
19282;BMP180;9774;52.034;5.342;2024-01-15T01:02:44;100030.00;;;7.60
19282;BMP180;9774;52.034;5.342;2024-01-15T01:05:11;100038.00;;;7.60
19282;BMP180;9774;52.034;5.342;2024-01-15T01:07:38;100036.00;;;7.50
19282;BMP180;9774;52.034;5.342;2024-01-15T01:10:06;100038.00;;;7.50
19282;BMP180;9774;52.034;5.342;2024-01-15T01:12:34;100024.00;;;7.50
19282;BMP180;9774;52.034;5.342;2024-01-15T01:15:02;100023.00;;;7.50
19282;BMP180;9774;52.034;5.342;2024-01-15T01:17:29;100030.00;;;7.40
19282;BMP180;9774;52.034;5.342;2024-01-15T01:19:56;100030.00;;;7.40
19282;BMP180;9774;52.034;5.342;2024-01-15T01:22:23;100027.00;;;7.40
19282;BMP180;9774;52.034;5.342;2024-01-15T01:24:50;100022.00;;;7.40
19282;BMP180;9774;52.034;5.342;2024-01-15T01:27:17;100023.00;;;7.40
19282;BMP180;9774;52.034;5.342;2024-01-15T01:29:46;100019.00;;;7.40
19282;BMP180;9774;52.034;5.342;2024-01-15T01:32:13;100025.00;;;7.40
19282;BMP180;9774;52.034;5.342;2024-01-15T01:34:41;100028.00;;;7.30
19282;BMP180;9774;52.034;5.342;2024-01-15T01:37:09;100029.00;;;7.30
19282;BMP180;9774;52.034;5.342;2024-01-15T01:39:36;100024.00;;;7.30
19282;BMP180;9774;52.034;5.342;2024-01-15T01:42:03;100026.00;;;7.30
19282;BMP180;9774;52.034;5.342;2024-01-15T01:44:30;100024.00;;;7.30
19282;BMP180;9774;52.034;5.342;2024-01-15T01:47:00;100026.00;;;7.30
19282;BMP180;9774;52.034;5.342;2024-01-15T01:49:28;100030.00;;;7.30
19282;BMP180;9774;52.034;5.342;2024-01-15T01:51:58;100029.00;;;7.30
19282;BMP180;9774;52.034;5.342;2024-01-15T01:54:29;100026.00;;;7.20
19282;BMP180;9774;52.034;5.342;2024-01-15T01:56:58;100024.00;;;7.20
19282;BMP180;9774;52.034;5.342;2024-01-15T01:59:27;100029.00;;;7.20
19282;BMP180;9774;52.034;5.342;2024-01-15T02:01:55;100036.00;;;7.20
19282;BMP180;9774;52.034;5.342;2024-01-15T02:04:24;100033.00;;;7.20
19282;BMP180;9774;52.034;5.342;2024-01-15T02:06:52;100038.00;;;7.20
19282;BMP180;9774;52.034;5.342;2024-01-15T02:09:19;100038.00;;;7.20
19282;BMP180;9774;52.034;5.342;2024-01-15T02:11:47;100031.00;;;7.10
19282;BMP180;9774;52.034;5.342;2024-01-15T02:14:14;100030.00;;;7.10
19282;BMP180;9774;52.034;5.342;2024-01-15T02:16:41;100030.00;;;7.10
19282;BMP180;9774;52.034;5.342;2024-01-15T02:19:15;100030.00;;;7.00
19282;BMP180;9774;52.034;5.342;2024-01-15T02:21:44;100022.00;;;7.10
19282;BMP180;9774;52.034;5.342;2024-01-15T02:24:13;100033.00;;;7.10
19282;BMP180;9774;52.034;5.342;2024-01-15T02:26:40;100026.00;;;7.10
19282;BMP180;9774;52.034;5.342;2024-01-15T02:29:07;100025.00;;;7.10
19282;BMP180;9774;52.034;5.342;2024-01-15T02:31:36;100026.00;;;7.10
19282;BMP180;9774;52.034;5.342;2024-01-15T02:34:03;100040.00;;;7.20
19282;BMP180;9774;52.034;5.342;2024-01-15T02:36:30;100037.00;;;7.20
19282;BMP180;9774;52.034;5.342;2024-01-15T02:38:58;100038.00;;;7.20
19282;BMP180;9774;52.034;5.342;2024-01-15T02:41:26;100039.00;;;7.20
19282;BMP180;9774;52.034;5.342;2024-01-15T02:43:53;100046.00;;;7.30
19282;BMP180;9774;52.034;5.342;2024-01-15T02:46:20;100038.00;;;7.30
19282;BMP180;9774;52.034;5.342;2024-01-15T02:48:47;100030.00;;;7.30
19282;BMP180;9774;52.034;5.342;2024-01-15T02:51:14;100029.00;;;7.40
19282;BMP180;9774;52.034;5.342;2024-01-15T02:53:41;100037.00;;;7.40
19282;BMP180;9774;52.034;5.342;2024-01-15T02:56:08;100044.00;;;7.50
19282;BMP180;9774;52.034;5.342;2024-01-15T02:58:37;100045.00;;;7.60
19282;BMP180;9774;52.034;5.342;2024-01-15T03:01:04;100040.00;;;7.60
19282;BMP180;9774;52.034;5.342;2024-01-15T03:03:31;100035.00;;;7.60
19282;BMP180;9774;52.034;5.342;2024-01-15T03:05:59;100032.00;;;7.70
19282;BMP180;9774;52.034;5.342;2024-01-15T03:08:26;100028.00;;;7.70
19282;BMP180;9774;52.034;5.342;2024-01-15T03:10:55;100030.00;;;7.70
19282;BMP180;9774;52.034;5.342;2024-01-15T03:13:22;100014.00;;;7.70
19282;BMP180;9774;52.034;5.342;2024-01-15T03:15:50;100013.00;;;7.70
19282;BMP180;9774;52.034;5.342;2024-01-15T03:18:17;100022.00;;;7.70
19282;BMP180;9774;52.034;5.342;2024-01-15T03:20:44;100024.00;;;7.70
19282;BMP180;9774;52.034;5.342;2024-01-15T03:23:11;100017.00;;;7.70
19282;BMP180;9774;52.034;5.342;2024-01-15T03:25:38;100014.00;;;7.70
19282;BMP180;9774;52.034;5.342;2024-01-15T03:28:05;100023.00;;;7.70
19282;BMP180;9774;52.034;5.342;2024-01-15T03:30:32;100022.00;;;7.70
19282;BMP180;9774;52.034;5.342;2024-01-15T03:33:01;100012.00;;;7.70
19282;BMP180;9774;52.034;5.342;2024-01-15T03:35:28;100014.00;;;7.70
19282;BMP180;9774;52.034;5.342;2024-01-15T03:37:56;100013.00;;;7.70
19282;BMP180;9774;52.034;5.342;2024-01-15T03:40:23;100010.00;;;7.70
19282;BMP180;9774;52.034;5.342;2024-01-15T03:42:51;100009.00;;;7.80
19282;BMP180;9774;52.034;5.342;2024-01-15T03:45:18;99997.00;;;7.80
19282;BMP180;9774;52.034;5.342;2024-01-15T03:47:45;99992.00;;;7.80
19282;BMP180;9774;52.034;5.342;2024-01-15T03:50:14;99992.00;;;7.80
19282;BMP180;9774;52.034;5.342;2024-01-15T03:52:41;100004.00;;;7.80
19282;BMP180;9774;52.034;5.342;2024-01-15T03:55:08;99991.00;;;7.80
19282;BMP180;9774;52.034;5.342;2024-01-15T03:57:35;99994.00;;;7.90
19282;BMP180;9774;52.034;5.342;2024-01-15T04:00:03;99993.00;;;7.80
19282;BMP180;9774;52.034;5.342;2024-01-15T04:02:31;99990.00;;;7.90
19282;BMP180;9774;52.034;5.342;2024-01-15T04:04:58;99989.00;;;7.90
19282;BMP180;9774;52.034;5.342;2024-01-15T04:07:26;99985.00;;;7.90
19282;BMP180;9774;52.034;5.342;2024-01-15T04:09:53;99983.00;;;7.90
19282;BMP180;9774;52.034;5.342;2024-01-15T04:12:20;99983.00;;;7.90
19282;BMP180;9774;52.034;5.342;2024-01-15T04:14:47;99991.00;;;8.00
19282;BMP180;9774;52.034;5.342;2024-01-15T04:17:14;99985.00;;;8.00
19282;BMP180;9774;52.034;5.342;2024-01-15T04:19:44;99978.00;;;8.00
19282;BMP180;9774;52.034;5.342;2024-01-15T04:22:11;99992.00;;;7.90
19282;BMP180;9774;52.034;5.342;2024-01-15T04:24:39;99979.00;;;7.90
19282;BMP180;9774;52.034;5.342;2024-01-15T04:27:07;99972.00;;;7.90
19282;BMP180;9774;52.034;5.342;2024-01-15T04:29:34;99974.00;;;7.90
19282;BMP180;9774;52.034;5.342;2024-01-15T04:32:01;99973.00;;;7.90
19282;BMP180;9774;52.034;5.342;2024-01-15T04:34:28;99973.00;;;7.80
19282;BMP180;9774;52.034;5.342;2024-01-15T04:36:55;99965.00;;;7.80
19282;BMP180;9774;52.034;5.342;2024-01-15T04:39:22;99960.00;;;7.80
19282;BMP180;9774;52.034;5.342;2024-01-15T04:41:50;99956.00;;;7.70
19282;BMP180;9774;52.034;5.342;2024-01-15T04:44:18;99957.00;;;7.80
19282;BMP180;9774;52.034;5.342;2024-01-15T04:46:45;99952.00;;;7.80
19282;BMP180;9774;52.034;5.342;2024-01-15T04:49:12;99958.00;;;7.70
19282;BMP180;9774;52.034;5.342;2024-01-15T04:51:39;99955.00;;;7.70
19282;BMP180;9774;52.034;5.342;2024-01-15T04:54:06;99944.00;;;7.70
19282;BMP180;9774;52.034;5.342;2024-01-15T04:56:33;99950.00;;;7.70
19282;BMP180;9774;52.034;5.342;2024-01-15T04:59:01;99946.00;;;7.70
19282;BMP180;9774;52.034;5.342;2024-01-15T05:01:31;99947.00;;;7.70
19282;BMP180;9774;52.034;5.342;2024-01-15T05:03:59;99944.00;;;7.80
19282;BMP180;9774;52.034;5.342;2024-01-15T05:06:26;99945.00;;;7.80
19282;BMP180;9774;52.034;5.342;2024-01-15T05:08:53;99950.00;;;7.80
19282;BMP180;9774;52.034;5.342;2024-01-15T05:11:20;99949.00;;;7.90
19282;BMP180;9774;52.034;5.342;2024-01-15T05:13:47;99950.00;;;7.90
19282;BMP180;9774;52.034;5.342;2024-01-15T05:16:15;99953.00;;;7.90
19282;BMP180;9774;52.034;5.342;2024-01-15T05:18:42;99949.00;;;7.90
19282;BMP180;9774;52.034;5.342;2024-01-15T05:21:10;99944.00;;;8.00
19282;BMP180;9774;52.034;5.342;2024-01-15T05:23:38;99944.00;;;8.00
19282;BMP180;9774;52.034;5.342;2024-01-15T05:26:05;99936.00;;;8.00
19282;BMP180;9774;52.034;5.342;2024-01-15T05:28:32;99936.00;;;8.00
19282;BMP180;9774;52.034;5.342;2024-01-15T05:31:00;99936.00;;;8.00
19282;BMP180;9774;52.034;5.342;2024-01-15T05:33:28;99934.00;;;8.00
19282;BMP180;9774;52.034;5.342;2024-01-15T05:35:55;99930.00;;;8.10
19282;BMP180;9774;52.034;5.342;2024-01-15T05:38:24;99938.00;;;8.10
19282;BMP180;9774;52.034;5.342;2024-01-15T05:40:51;99933.00;;;8.10
19282;BMP180;9774;52.034;5.342;2024-01-15T05:43:18;99936.00;;;8.10
19282;BMP180;9774;52.034;5.342;2024-01-15T05:45:45;99925.00;;;8.10
19282;BMP180;9774;52.034;5.342;2024-01-15T05:48:12;99932.00;;;8.10
19282;BMP180;9774;52.034;5.342;2024-01-15T05:50:42;99931.00;;;8.10
19282;BMP180;9774;52.034;5.342;2024-01-15T05:53:09;99931.00;;;8.10
19282;BMP180;9774;52.034;5.342;2024-01-15T05:55:36;99928.00;;;8.10
19282;BMP180;9774;52.034;5.342;2024-01-15T05:58:04;99929.00;;;8.10
19282;BMP180;9774;52.034;5.342;2024-01-15T06:00:31;99923.00;;;8.10
19282;BMP180;9774;52.034;5.342;2024-01-15T06:02:59;99932.00;;;8.20
19282;BMP180;9774;52.034;5.342;2024-01-15T06:05:26;99928.00;;;8.20
19282;BMP180;9774;52.034;5.342;2024-01-15T06:07:54;99920.00;;;8.20
19282;BMP180;9774;52.034;5.342;2024-01-15T06:10:21;99925.00;;;8.20
19282;BMP180;9774;52.034;5.342;2024-01-15T06:12:48;99918.00;;;8.20
19282;BMP180;9774;52.034;5.342;2024-01-15T06:15:15;99922.00;;;8.30
19282;BMP180;9774;52.034;5.342;2024-01-15T06:17:43;99920.00;;;8.30
19282;BMP180;9774;52.034;5.342;2024-01-15T06:20:11;99916.00;;;8.30
19282;BMP180;9774;52.034;5.342;2024-01-15T06:22:38;99927.00;;;8.30
19282;BMP180;9774;52.034;5.342;2024-01-15T06:25:08;99926.00;;;8.30
19282;BMP180;9774;52.034;5.342;2024-01-15T06:27:35;99933.00;;;8.30
19282;BMP180;9774;52.034;5.342;2024-01-15T06:30:03;99926.00;;;8.30
19282;BMP180;9774;52.034;5.342;2024-01-15T06:32:30;99919.00;;;8.30
19282;BMP180;9774;52.034;5.342;2024-01-15T06:34:58;99926.00;;;8.30
19282;BMP180;9774;52.034;5.342;2024-01-15T06:37:27;99922.00;;;8.30
19282;BMP180;9774;52.034;5.342;2024-01-15T06:39:54;99914.00;;;8.30
19282;BMP180;9774;52.034;5.342;2024-01-15T06:42:22;99921.00;;;8.30
19282;BMP180;9774;52.034;5.342;2024-01-15T06:44:49;99935.00;;;8.30
19282;BMP180;9774;52.034;5.342;2024-01-15T06:47:16;99927.00;;;8.30
19282;BMP180;9774;52.034;5.342;2024-01-15T06:49:43;99930.00;;;8.40
19282;BMP180;9774;52.034;5.342;2024-01-15T06:52:10;99930.00;;;8.40
19282;BMP180;9774;52.034;5.342;2024-01-15T06:54:38;99922.00;;;8.30
19282;BMP180;9774;52.034;5.342;2024-01-15T06:57:05;99927.00;;;8.40
19282;BMP180;9774;52.034;5.342;2024-01-15T06:59:34;99923.00;;;8.40
19282;BMP180;9774;52.034;5.342;2024-01-15T07:02:02;99919.00;;;8.40
19282;BMP180;9774;52.034;5.342;2024-01-15T07:04:29;99923.00;;;8.30
19282;BMP180;9774;52.034;5.342;2024-01-15T07:06:56;99916.00;;;8.50
19282;BMP180;9774;52.034;5.342;2024-01-15T07:09:23;99903.00;;;8.50
19282;BMP180;9774;52.034;5.342;2024-01-15T07:11:50;99906.00;;;8.40
19282;BMP180;9774;52.034;5.342;2024-01-15T07:14:17;99911.00;;;8.40
19282;BMP180;9774;52.034;5.342;2024-01-15T07:16:46;99907.00;;;8.40
19282;BMP180;9774;52.034;5.342;2024-01-15T07:19:13;99926.00;;;8.50
19282;BMP180;9774;52.034;5.342;2024-01-15T07:21:40;99929.00;;;8.40
19282;BMP180;9774;52.034;5.342;2024-01-15T07:24:09;99938.00;;;8.40
19282;BMP180;9774;52.034;5.342;2024-01-15T07:26:36;99950.00;;;8.40
19282;BMP180;9774;52.034;5.342;2024-01-15T07:29:04;99947.00;;;8.30
19282;BMP180;9774;52.034;5.342;2024-01-15T07:31:32;99948.00;;;8.30
19282;BMP180;9774;52.034;5.342;2024-01-15T07:34:00;99943.00;;;8.20
19282;BMP180;9774;52.034;5.342;2024-01-15T07:36:27;99930.00;;;8.20
19282;BMP180;9774;52.034;5.342;2024-01-15T07:38:55;99928.00;;;8.20
19282;BMP180;9774;52.034;5.342;2024-01-15T07:41:22;99937.00;;;8.20
19282;BMP180;9774;52.034;5.342;2024-01-15T07:43:49;99937.00;;;8.20
19282;BMP180;9774;52.034;5.342;2024-01-15T07:46:16;99946.00;;;8.20
19282;BMP180;9774;52.034;5.342;2024-01-15T07:48:43;99938.00;;;8.20
19282;BMP180;9774;52.034;5.342;2024-01-15T07:51:12;99932.00;;;8.20
19282;BMP180;9774;52.034;5.342;2024-01-15T07:53:39;99935.00;;;8.20
19282;BMP180;9774;52.034;5.342;2024-01-15T07:56:06;99937.00;;;8.20
19282;BMP180;9774;52.034;5.342;2024-01-15T07:58:33;99938.00;;;8.20
19282;BMP180;9774;52.034;5.342;2024-01-15T08:01:00;99945.00;;;8.20
19282;BMP180;9774;52.034;5.342;2024-01-15T08:03:27;99959.00;;;8.20
19282;BMP180;9774;52.034;5.342;2024-01-15T08:05:54;99957.00;;;8.20
19282;BMP180;9774;52.034;5.342;2024-01-15T08:08:24;99947.00;;;8.20
19282;BMP180;9774;52.034;5.342;2024-01-15T08:10:52;99943.00;;;8.20
19282;BMP180;9774;52.034;5.342;2024-01-15T08:13:19;99929.00;;;8.30
19282;BMP180;9774;52.034;5.342;2024-01-15T08:15:46;99921.00;;;8.30
19282;BMP180;9774;52.034;5.342;2024-01-15T08:18:14;99922.00;;;8.30
19282;BMP180;9774;52.034;5.342;2024-01-15T08:20:41;99930.00;;;8.30
19282;BMP180;9774;52.034;5.342;2024-01-15T08:23:08;99928.00;;;8.30
19282;BMP180;9774;52.034;5.342;2024-01-15T08:25:36;99929.00;;;8.30
19282;BMP180;9774;52.034;5.342;2024-01-15T08:28:04;99929.00;;;8.30
19282;BMP180;9774;52.034;5.342;2024-01-15T08:30:31;99923.00;;;8.30
19282;BMP180;9774;52.034;5.342;2024-01-15T08:32:58;99926.00;;;8.30
19282;BMP180;9774;52.034;5.342;2024-01-15T08:35:25;99932.00;;;8.30
19282;BMP180;9774;52.034;5.342;2024-01-15T08:37:53;99933.00;;;8.20
19282;BMP180;9774;52.034;5.342;2024-01-15T08:40:20;99931.00;;;8.30
19282;BMP180;9774;52.034;5.342;2024-01-15T08:42:48;99939.00;;;8.30
19282;BMP180;9774;52.034;5.342;2024-01-15T08:45:16;99948.00;;;8.30
19282;BMP180;9774;52.034;5.342;2024-01-15T08:47:43;99948.00;;;8.30
19282;BMP180;9774;52.034;5.342;2024-01-15T08:50:10;99953.00;;;8.30
19282;BMP180;9774;52.034;5.342;2024-01-15T08:52:37;99952.00;;;8.30
19282;BMP180;9774;52.034;5.342;2024-01-15T08:55:04;99951.00;;;8.30
19282;BMP180;9774;52.034;5.342;2024-01-15T08:57:33;99940.00;;;8.30
19282;BMP180;9774;52.034;5.342;2024-01-15T09:00:02;99931.00;;;8.30
19282;BMP180;9774;52.034;5.342;2024-01-15T09:02:29;99939.00;;;8.30
19282;BMP180;9774;52.034;5.342;2024-01-15T09:04:56;99945.00;;;8.30
19282;BMP180;9774;52.034;5.342;2024-01-15T09:07:23;99950.00;;;8.30
19282;BMP180;9774;52.034;5.342;2024-01-15T09:09:53;99953.00;;;8.30
19282;BMP180;9774;52.034;5.342;2024-01-15T09:12:20;99958.00;;;8.40
19282;BMP180;9774;52.034;5.342;2024-01-15T09:14:48;99972.00;;;8.40
19282;BMP180;9774;52.034;5.342;2024-01-15T09:17:17;99977.00;;;8.40
19282;BMP180;9774;52.034;5.342;2024-01-15T09:19:44;99971.00;;;8.50
19282;BMP180;9774;52.034;5.342;2024-01-15T09:22:12;99977.00;;;8.40
19282;BMP180;9774;52.034;5.342;2024-01-15T09:24:40;99974.00;;;8.40
19282;BMP180;9774;52.034;5.342;2024-01-15T09:27:08;99974.00;;;8.40
19282;BMP180;9774;52.034;5.342;2024-01-15T09:29:35;99968.00;;;8.40
19282;BMP180;9774;52.034;5.342;2024-01-15T09:32:03;99953.00;;;8.40
19282;BMP180;9774;52.034;5.342;2024-01-15T09:34:31;99955.00;;;8.40
19282;BMP180;9774;52.034;5.342;2024-01-15T09:36:58;99961.00;;;8.40
19282;BMP180;9774;52.034;5.342;2024-01-15T09:39:26;99962.00;;;8.50
19282;BMP180;9774;52.034;5.342;2024-01-15T09:41:54;99976.00;;;8.50
19282;BMP180;9774;52.034;5.342;2024-01-15T09:44:22;99969.00;;;8.50
19282;BMP180;9774;52.034;5.342;2024-01-15T09:46:51;99968.00;;;8.50
19282;BMP180;9774;52.034;5.342;2024-01-15T09:49:19;99967.00;;;8.60
19282;BMP180;9774;52.034;5.342;2024-01-15T09:51:48;99969.00;;;8.60
19282;BMP180;9774;52.034;5.342;2024-01-15T09:54:16;99966.00;;;8.60
19282;BMP180;9774;52.034;5.342;2024-01-15T09:56:46;99960.00;;;8.60
19282;BMP180;9774;52.034;5.342;2024-01-15T09:59:15;99960.00;;;8.60
19282;BMP180;9774;52.034;5.342;2024-01-15T10:01:43;99951.00;;;8.60
19282;BMP180;9774;52.034;5.342;2024-01-15T10:04:10;99956.00;;;8.70
19282;BMP180;9774;52.034;5.342;2024-01-15T10:06:39;99948.00;;;8.60
19282;BMP180;9774;52.034;5.342;2024-01-15T10:09:07;99945.00;;;8.50
19282;BMP180;9774;52.034;5.342;2024-01-15T10:11:35;99945.00;;;8.60
19282;BMP180;9774;52.034;5.342;2024-01-15T10:14:04;99943.00;;;8.50
19282;BMP180;9774;52.034;5.342;2024-01-15T10:16:31;99944.00;;;8.50
19282;BMP180;9774;52.034;5.342;2024-01-15T10:18:58;99953.00;;;8.60
19282;BMP180;9774;52.034;5.342;2024-01-15T10:21:25;99951.00;;;8.60
19282;BMP180;9774;52.034;5.342;2024-01-15T10:23:54;99953.00;;;8.70
19282;BMP180;9774;52.034;5.342;2024-01-15T10:26:26;99958.00;;;8.70
19282;BMP180;9774;52.034;5.342;2024-01-15T10:28:53;99959.00;;;8.80
19282;BMP180;9774;52.034;5.342;2024-01-15T10:31:21;99951.00;;;8.90
19282;BMP180;9774;52.034;5.342;2024-01-15T10:33:48;99935.00;;;8.90
19282;BMP180;9774;52.034;5.342;2024-01-15T10:36:16;99938.00;;;8.90
19282;BMP180;9774;52.034;5.342;2024-01-15T10:38:44;99949.00;;;9.00
19282;BMP180;9774;52.034;5.342;2024-01-15T10:41:12;99943.00;;;9.10
19282;BMP180;9774;52.034;5.342;2024-01-15T10:43:40;99951.00;;;9.10
19282;BMP180;9774;52.034;5.342;2024-01-15T10:46:08;99946.00;;;9.10
19282;BMP180;9774;52.034;5.342;2024-01-15T10:48:36;99949.00;;;9.20
19282;BMP180;9774;52.034;5.342;2024-01-15T10:51:05;99950.00;;;9.10
19282;BMP180;9774;52.034;5.342;2024-01-15T10:53:38;99956.00;;;9.10
19282;BMP180;9774;52.034;5.342;2024-01-15T10:56:07;99954.00;;;9.10
19282;BMP180;9774;52.034;5.342;2024-01-15T10:58:40;99962.00;;;9.00
19282;BMP180;9774;52.034;5.342;2024-01-15T11:01:09;99967.00;;;9.10
19282;BMP180;9774;52.034;5.342;2024-01-15T11:03:36;99965.00;;;9.10
19282;BMP180;9774;52.034;5.342;2024-01-15T11:06:16;99971.00;;;9.10
19282;BMP180;9774;52.034;5.342;2024-01-15T11:08:44;99973.00;;;9.20
19282;BMP180;9774;52.034;5.342;2024-01-15T11:11:11;99966.00;;;9.30
19282;BMP180;9774;52.034;5.342;2024-01-15T11:13:45;99966.00;;;9.20
19282;BMP180;9774;52.034;5.342;2024-01-15T11:16:15;99972.00;;;9.30
19282;BMP180;9774;52.034;5.342;2024-01-15T11:19:01;99977.00;;;9.30
19282;BMP180;9774;52.034;5.342;2024-01-15T11:21:29;99987.00;;;9.40
19282;BMP180;9774;52.034;5.342;2024-01-15T11:23:58;99982.00;;;9.30
19282;BMP180;9774;52.034;5.342;2024-01-15T11:26:44;99978.00;;;9.20
19282;BMP180;9774;52.034;5.342;2024-01-15T11:29:30;99981.00;;;9.20
19282;BMP180;9774;52.034;5.342;2024-01-15T11:32:00;99981.00;;;9.30
19282;BMP180;9774;52.034;5.342;2024-01-15T11:34:53;99989.00;;;9.10
19282;BMP180;9774;52.034;5.342;2024-01-15T11:37:25;99984.00;;;9.20
19282;BMP180;9774;52.034;5.342;2024-01-15T11:39:53;99989.00;;;9.20
19282;BMP180;9774;52.034;5.342;2024-01-15T11:42:22;99993.00;;;9.30
19282;BMP180;9774;52.034;5.342;2024-01-15T11:44:52;99983.00;;;9.20
19282;BMP180;9774;52.034;5.342;2024-01-15T11:50:34;99996.00;;;9.30
19282;BMP180;9774;52.034;5.342;2024-01-15T11:53:03;99990.00;;;9.30
19282;BMP180;9774;52.034;5.342;2024-01-15T11:55:35;100002.00;;;9.30
19282;BMP180;9774;52.034;5.342;2024-01-15T11:58:08;99997.00;;;9.30
19282;BMP180;9774;52.034;5.342;2024-01-15T12:00:39;100005.00;;;9.30
19282;BMP180;9774;52.034;5.342;2024-01-15T12:03:08;100008.00;;;9.40
19282;BMP180;9774;52.034;5.342;2024-01-15T12:05:37;99997.00;;;9.30
19282;BMP180;9774;52.034;5.342;2024-01-15T12:08:05;99997.00;;;9.30
19282;BMP180;9774;52.034;5.342;2024-01-15T12:10:37;100004.00;;;9.30
19282;BMP180;9774;52.034;5.342;2024-01-15T12:13:10;99996.00;;;9.20
19282;BMP180;9774;52.034;5.342;2024-01-15T12:15:40;100009.00;;;9.20
19282;BMP180;9774;52.034;5.342;2024-01-15T12:18:10;100003.00;;;9.20
19282;BMP180;9774;52.034;5.342;2024-01-15T12:20:37;100011.00;;;9.20
19282;BMP180;9774;52.034;5.342;2024-01-15T12:23:04;100014.00;;;9.20
19282;BMP180;9774;52.034;5.342;2024-01-15T12:25:32;100016.00;;;9.20
19282;BMP180;9774;52.034;5.342;2024-01-15T12:28:01;100015.00;;;9.30
19282;BMP180;9774;52.034;5.342;2024-01-15T12:30:30;100017.00;;;9.30
19282;BMP180;9774;52.034;5.342;2024-01-15T12:33:01;100009.00;;;9.40
19282;BMP180;9774;52.034;5.342;2024-01-15T12:35:30;100008.00;;;9.40
19282;BMP180;9774;52.034;5.342;2024-01-15T12:37:57;100006.00;;;9.50
19282;BMP180;9774;52.034;5.342;2024-01-15T12:40:26;100002.00;;;9.50
19282;BMP180;9774;52.034;5.342;2024-01-15T12:42:53;100011.00;;;9.50
19282;BMP180;9774;52.034;5.342;2024-01-15T12:45:20;100011.00;;;9.60
19282;BMP180;9774;52.034;5.342;2024-01-15T12:47:47;100010.00;;;9.60
19282;BMP180;9774;52.034;5.342;2024-01-15T12:50:17;100017.00;;;9.70
19282;BMP180;9774;52.034;5.342;2024-01-15T12:52:44;100034.00;;;9.80
19282;BMP180;9774;52.034;5.342;2024-01-15T12:55:12;100043.00;;;9.90
19282;BMP180;9774;52.034;5.342;2024-01-15T12:57:39;100053.00;;;9.90
19282;BMP180;9774;52.034;5.342;2024-01-15T13:00:07;100062.00;;;9.90
19282;BMP180;9774;52.034;5.342;2024-01-15T13:02:38;100069.00;;;9.90
19282;BMP180;9774;52.034;5.342;2024-01-15T13:05:08;100054.00;;;9.80
19282;BMP180;9774;52.034;5.342;2024-01-15T13:07:38;100050.00;;;9.80
19282;BMP180;9774;52.034;5.342;2024-01-15T13:10:06;100052.00;;;9.70
19282;BMP180;9774;52.034;5.342;2024-01-15T13:12:34;100061.00;;;9.60
19282;BMP180;9774;52.034;5.342;2024-01-15T13:15:02;100076.00;;;9.60
19282;BMP180;9774;52.034;5.342;2024-01-15T13:17:30;100056.00;;;9.50
19282;BMP180;9774;52.034;5.342;2024-01-15T13:19:57;100050.00;;;9.50
19282;BMP180;9774;52.034;5.342;2024-01-15T13:22:24;100045.00;;;9.40
19282;BMP180;9774;52.034;5.342;2024-01-15T13:24:57;100032.00;;;9.50
19282;BMP180;9774;52.034;5.342;2024-01-15T13:27:24;100027.00;;;9.90
19282;BMP180;9774;52.034;5.342;2024-01-15T13:29:51;100038.00;;;10.30
19282;BMP180;9774;52.034;5.342;2024-01-15T13:32:24;100050.00;;;10.70
19282;BMP180;9774;52.034;5.342;2024-01-15T13:34:52;100048.00;;;11.10
19282;BMP180;9774;52.034;5.342;2024-01-15T13:37:19;100051.00;;;11.50
19282;BMP180;9774;52.034;5.342;2024-01-15T13:39:46;100054.00;;;11.80
19282;BMP180;9774;52.034;5.342;2024-01-15T13:42:15;100051.00;;;11.90
19282;BMP180;9774;52.034;5.342;2024-01-15T13:44:42;100050.00;;;12.10
19282;BMP180;9774;52.034;5.342;2024-01-15T13:47:09;100061.00;;;12.00
19282;BMP180;9774;52.034;5.342;2024-01-15T13:49:36;100064.00;;;12.00
19282;BMP180;9774;52.034;5.342;2024-01-15T13:52:04;100087.00;;;11.90
19282;BMP180;9774;52.034;5.342;2024-01-15T13:54:31;100086.00;;;11.80
19282;BMP180;9774;52.034;5.342;2024-01-15T13:56:58;100079.00;;;11.70
19282;BMP180;9774;52.034;5.342;2024-01-15T13:59:26;100079.00;;;11.50
19282;BMP180;9774;52.034;5.342;2024-01-15T14:01:54;100101.00;;;11.40
19282;BMP180;9774;52.034;5.342;2024-01-15T14:04:21;100105.00;;;11.20
19282;BMP180;9774;52.034;5.342;2024-01-15T14:06:48;100105.00;;;11.00
19282;BMP180;9774;52.034;5.342;2024-01-15T14:09:15;100095.00;;;10.90
19282;BMP180;9774;52.034;5.342;2024-01-15T14:11:42;100093.00;;;10.80
19282;BMP180;9774;52.034;5.342;2024-01-15T14:14:09;100089.00;;;10.70
19282;BMP180;9774;52.034;5.342;2024-01-15T14:16:37;100094.00;;;10.60
19282;BMP180;9774;52.034;5.342;2024-01-15T14:19:04;100102.00;;;10.50
19282;BMP180;9774;52.034;5.342;2024-01-15T14:21:35;100088.00;;;10.50
19282;BMP180;9774;52.034;5.342;2024-01-15T14:24:02;100094.00;;;10.40
19282;BMP180;9774;52.034;5.342;2024-01-15T14:26:29;100107.00;;;10.30
19282;BMP180;9774;52.034;5.342;2024-01-15T14:28:57;100102.00;;;10.30
19282;BMP180;9774;52.034;5.342;2024-01-15T14:31:25;100111.00;;;10.30
19282;BMP180;9774;52.034;5.342;2024-01-15T14:33:55;100124.00;;;10.20
19282;BMP180;9774;52.034;5.342;2024-01-15T14:36:22;100120.00;;;10.20